createdAt,value
2018-11-13T00:00:21.173Z,96476.18
2018-11-13T00:02:50.943Z,96476.31
2018-11-13T00:05:20.111Z,96471.70
2018-11-13T00:07:49.048Z,96475.42
2018-11-13T00:10:17.909Z,96493.31
2018-11-13T00:12:46.773Z,96494.50
2018-11-13T00:15:15.657Z,96490.54
2018-11-13T00:17:44.470Z,96492.67
2018-11-13T00:20:14.510Z,96494.64
2018-11-13T00:22:43.898Z,96488.44
2018-11-13T00:25:14.022Z,96496.69
2018-11-13T00:27:43.410Z,96499.16
2018-11-13T00:30:14.906Z,96496.20
2018-11-13T00:32:44.091Z,96494.02
2018-11-13T00:35:13.791Z,96494.17
2018-11-13T00:37:42.756Z,96487.95
2018-11-13T00:40:12.452Z,96489.88
2018-11-13T00:42:42.308Z,96490.13
2018-11-13T00:45:11.150Z,96488.71
2018-11-13T00:47:40.053Z,96489.73
2018-11-13T00:50:11.234Z,96483.53
2018-11-13T00:52:40.454Z,96486.94
2018-11-13T00:55:09.409Z,96481.73
2018-11-13T00:57:38.513Z,96484.70
2018-11-13T01:00:09.885Z,96490.05
2018-11-13T01:02:38.731Z,96487.09
2018-11-13T01:05:09.451Z,96480.53
2018-11-13T01:07:38.360Z,96474.86
2018-11-13T01:10:08.495Z,96473.68
2018-11-13T01:12:37.375Z,96468.48
2018-11-13T01:15:07.059Z,96466.25
2018-11-13T01:17:35.789Z,96470.36
2018-11-13T01:20:04.790Z,96476.95
2018-11-13T01:22:34.088Z,96470.91
2018-11-13T01:25:02.569Z,96472.67
2018-11-13T01:27:31.481Z,96480.17
2018-11-13T01:30:00.317Z,96477.83
2018-11-13T01:32:29.957Z,96484.24
2018-11-13T01:34:58.842Z,96486.87
2018-11-13T01:37:27.660Z,96481.89
2018-11-13T01:39:56.522Z,96488.20
2018-11-13T01:42:25.442Z,96490.14
2018-11-13T01:44:54.274Z,96491.27
2018-11-13T01:47:23.068Z,96487.19
2018-11-13T01:49:52.030Z,96495.63
2018-11-13T01:52:20.848Z,96491.98
2018-11-13T01:54:49.702Z,96498.62
2018-11-13T01:57:18.554Z,96496.31
2018-11-13T01:59:47.417Z,96492.78
2018-11-13T02:02:16.238Z,96494.63
2018-11-13T02:04:45.056Z,96491.41
2018-11-13T02:07:14.011Z,96489.54
2018-11-13T02:09:42.920Z,96486.33
2018-11-13T02:12:11.856Z,96486.69
2018-11-13T02:14:40.697Z,96485.97
2018-11-13T02:17:09.622Z,96483.45
2018-11-13T02:19:38.529Z,96475.88
2018-11-13T02:22:07.380Z,96478.00
2018-11-13T02:24:36.236Z,96481.34
2018-11-13T02:27:05.182Z,96483.42
2018-11-13T02:29:34.126Z,96483.70
2018-11-13T02:32:02.992Z,96474.34
2018-11-13T02:34:31.849Z,96484.84
2018-11-13T02:37:00.673Z,96490.75
2018-11-13T02:39:29.554Z,96492.52
2018-11-13T02:41:58.439Z,96496.33
2018-11-13T02:44:27.259Z,96496.70
2018-11-13T02:46:56.242Z,96494.08
2018-11-13T02:49:28.147Z,96495.84
2018-11-13T02:51:57.271Z,96501.61
2018-11-13T02:54:26.101Z,96502.16
2018-11-13T02:56:54.956Z,96506.12
2018-11-13T02:59:23.795Z,96506.05
2018-11-13T03:01:52.644Z,96506.80
2018-11-13T03:04:21.469Z,96501.61
2018-11-13T03:06:50.495Z,96501.08
2018-11-13T03:09:19.450Z,96499.22
2018-11-13T03:11:48.431Z,96502.89
2018-11-13T03:14:17.256Z,96503.06
2018-11-13T03:16:46.123Z,96510.72
2018-11-13T03:19:15.011Z,96513.45
2018-11-13T03:21:43.997Z,96515.45
2018-11-13T03:24:12.992Z,96511.04
2018-11-13T03:26:42.001Z,96512.22
2018-11-13T03:29:10.807Z,96514.05
2018-11-13T03:31:39.743Z,96509.95
2018-11-13T03:34:08.515Z,96511.47
2018-11-13T03:36:37.655Z,96508.36
2018-11-13T03:39:08.497Z,96509.16
2018-11-13T03:41:37.838Z,96513.72
2018-11-13T03:44:07.731Z,96512.44
2018-11-13T03:46:36.619Z,96513.45
2018-11-13T03:49:06.075Z,96521.78
2018-11-13T03:51:34.941Z,96516.14
2018-11-13T03:54:03.852Z,96517.27
2018-11-13T03:56:32.749Z,96522.70
2018-11-13T03:59:01.585Z,96521.23
2018-11-13T04:01:30.484Z,96518.73
2018-11-13T04:03:59.463Z,96514.12
2018-11-13T04:06:28.322Z,96517.37
2018-11-13T04:08:57.155Z,96520.78
2018-11-13T04:11:26.063Z,96521.72
2018-11-13T04:14:01.108Z,96519.77
2018-11-13T04:16:30.010Z,96527.09
2018-11-13T04:18:58.869Z,96524.49
2018-11-13T04:21:27.702Z,96527.27
2018-11-13T04:23:56.554Z,96531.62
2018-11-13T04:26:25.647Z,96532.91
2018-11-13T04:28:54.497Z,96540.13
2018-11-13T04:31:23.336Z,96541.72
2018-11-13T04:33:52.443Z,96537.73
2018-11-13T04:36:21.307Z,96542.82
2018-11-13T04:38:50.258Z,96544.88
2018-11-13T04:41:19.193Z,96541.72
2018-11-13T04:43:48.103Z,96543.28
2018-11-13T04:46:17.747Z,96540.32
2018-11-13T04:48:46.717Z,96544.11
2018-11-13T04:51:15.554Z,96544.31
2018-11-13T04:53:44.467Z,96537.16
2018-11-13T04:56:13.610Z,96537.06
2018-11-13T04:58:42.469Z,96537.06
2018-11-13T05:01:11.295Z,96539.86
2018-11-13T05:03:40.114Z,96535.67
2018-11-13T05:06:09.148Z,96542.64
2018-11-13T05:08:37.995Z,96547.73
2018-11-13T05:11:07.079Z,96551.98
2018-11-13T05:13:36.009Z,96547.92
2018-11-13T05:16:05.257Z,96555.41
2018-11-13T05:18:34.141Z,96558.47
2018-11-13T05:21:02.996Z,96564.48
2018-11-13T05:23:31.797Z,96563.25
2018-11-13T05:26:00.625Z,96561.33
2018-11-13T05:28:29.460Z,96555.11
2018-11-13T05:31:04.504Z,96564.55
2018-11-13T05:33:33.329Z,96568.59
2018-11-13T05:36:02.202Z,96566.48
2018-11-13T05:38:31.035Z,96569.56
2018-11-13T05:40:59.865Z,96571.43
2018-11-13T05:43:28.943Z,96575.12
2018-11-13T05:45:57.993Z,96571.03
2018-11-13T05:48:26.861Z,96577.55
2018-11-13T05:50:55.794Z,96582.00
2018-11-13T05:53:24.619Z,96578.28
2018-11-13T05:55:53.444Z,96585.59
2018-11-13T05:58:22.324Z,96585.59
2018-11-13T06:00:51.149Z,96586.88
2018-11-13T06:03:19.993Z,96587.37
2018-11-13T06:05:48.846Z,96593.20
2018-11-13T06:08:18.605Z,96593.76
2018-11-13T06:10:48.182Z,96599.52
2018-11-13T06:13:17.021Z,96597.95
2018-11-13T06:15:45.956Z,96597.75
2018-11-13T06:18:14.829Z,96596.28
2018-11-13T06:20:43.651Z,96604.05
2018-11-13T06:23:12.561Z,96601.75
2018-11-13T06:25:41.329Z,96603.51
2018-11-13T06:28:10.274Z,96604.80
2018-11-13T06:30:39.151Z,96607.75
2018-11-13T06:33:08.033Z,96611.36
2018-11-13T06:35:36.912Z,96611.08
2018-11-13T06:38:05.890Z,96613.22
2018-11-13T06:40:34.773Z,96612.27
2018-11-13T06:43:03.636Z,96613.19
2018-11-13T06:45:32.465Z,96619.30
2018-11-13T06:48:01.292Z,96621.73
2018-11-13T06:50:30.164Z,96623.38
2018-11-13T06:52:59.025Z,96614.83
2018-11-13T06:55:35.034Z,96613.06
2018-11-13T06:58:04.505Z,96611.20
2018-11-13T07:00:33.409Z,96610.55
2018-11-13T07:03:02.409Z,96616.67
2018-11-13T07:05:31.230Z,96615.81
2018-11-13T07:08:00.169Z,96617.14
2018-11-13T07:10:29.774Z,96612.97
2018-11-13T07:12:59.164Z,96616.18
2018-11-13T07:15:29.288Z,96620.62
2018-11-13T07:18:02.390Z,96617.50
2018-11-13T07:20:32.569Z,96614.52
2018-11-13T07:23:01.492Z,96610.34
2018-11-13T07:25:30.429Z,96613.69
2018-11-13T07:27:59.367Z,96617.55
2018-11-13T07:30:28.675Z,96625.67
2018-11-13T07:32:57.508Z,96622.75
2018-11-13T07:35:26.366Z,96619.89
2018-11-13T07:37:57.407Z,96618.23
2018-11-13T07:40:26.453Z,96621.39
2018-11-13T07:42:55.489Z,96615.61
2018-11-13T07:45:24.386Z,96614.71
2018-11-13T07:47:53.730Z,96615.31
2018-11-13T07:50:22.544Z,96617.73
2018-11-13T07:52:51.394Z,96616.62
2018-11-13T07:55:20.236Z,96611.70
2018-11-13T07:57:49.074Z,96618.98
2018-11-13T08:00:20.000Z,96621.85
2018-11-13T08:02:50.221Z,96618.05
2018-11-13T08:05:19.113Z,96613.47
2018-11-13T08:07:47.956Z,96613.17
2018-11-13T08:10:16.944Z,96612.94
2018-11-13T08:12:46.197Z,96614.21
2018-11-13T08:15:16.309Z,96611.30
2018-11-13T08:17:45.153Z,96612.83
2018-11-13T08:20:15.168Z,96605.64
2018-11-13T08:22:44.524Z,96603.70
2018-11-13T08:25:13.522Z,96604.52
2018-11-13T08:27:45.774Z,96612.53
2018-11-13T08:30:16.017Z,96603.30
2018-11-13T08:32:45.616Z,96604.13
2018-11-13T08:35:14.722Z,96603.23
2018-11-13T08:37:43.682Z,96605.16
2018-11-13T08:40:14.125Z,96599.66
2018-11-13T08:42:43.683Z,96599.27
2018-11-13T08:45:13.527Z,96600.39
2018-11-13T08:47:42.737Z,96590.95
2018-11-13T08:50:12.156Z,96588.36
2018-11-13T08:52:41.745Z,96589.22
2018-11-13T08:55:11.169Z,96575.22
2018-11-13T08:57:40.090Z,96587.46
2018-11-13T09:00:11.018Z,96583.33
2018-11-13T09:02:40.274Z,96585.45
2018-11-13T09:05:09.797Z,96579.99
2018-11-13T09:07:38.762Z,96582.86
2018-11-13T09:10:10.360Z,96576.81
2018-11-13T09:12:39.742Z,96572.16
2018-11-13T09:15:10.700Z,96569.80
2018-11-13T09:17:39.601Z,96572.54
2018-11-13T09:20:10.664Z,96572.09
2018-11-13T09:22:39.557Z,96568.14
2018-11-13T09:25:10.633Z,96561.86
2018-11-13T09:27:40.477Z,96553.06
2018-11-13T09:30:11.973Z,96549.98
2018-11-13T09:32:41.352Z,96543.19
2018-11-13T09:35:11.579Z,96549.38
2018-11-13T09:37:40.332Z,96542.14
2018-11-13T09:40:11.863Z,96538.91
2018-11-13T09:42:41.382Z,96541.28
2018-11-13T09:45:10.988Z,96535.25
2018-11-13T09:47:40.255Z,96538.92
2018-11-13T09:50:13.572Z,96536.91
2018-11-13T09:52:43.631Z,96534.88
2018-11-13T09:55:13.943Z,96528.23
2018-11-13T09:57:42.781Z,96523.38
2018-11-13T10:00:17.075Z,96512.18
2018-11-13T10:02:54.081Z,96517.01
2018-11-13T10:05:23.056Z,96519.95
2018-11-13T10:07:52.407Z,96517.23
2018-11-13T10:10:21.293Z,96511.52
2018-11-13T10:12:50.243Z,96508.64
2018-11-13T10:15:23.414Z,96502.43
2018-11-13T10:17:52.379Z,96499.91
2018-11-13T10:20:21.193Z,96492.19
2018-11-13T10:22:51.504Z,96489.86
2018-11-13T10:25:20.391Z,96494.80
2018-11-13T10:27:49.374Z,96495.35
2018-11-13T10:30:19.386Z,96489.88
2018-11-13T10:32:48.788Z,96483.68
2018-11-13T10:35:19.019Z,96480.09
2018-11-13T10:37:47.947Z,96471.18
2018-11-13T10:40:18.177Z,96473.14
2018-11-13T10:42:47.055Z,96476.58
2018-11-13T10:45:18.297Z,96469.94
2018-11-13T10:47:47.115Z,96468.88
2018-11-13T10:50:17.734Z,96463.39
2018-11-13T10:52:46.667Z,96461.16
2018-11-13T10:55:15.486Z,96457.09
2018-11-13T10:57:44.634Z,96452.78
2018-11-13T11:00:20.546Z,96459.97
2018-11-13T11:02:54.728Z,96455.98
2018-11-13T11:05:25.491Z,96448.39
2018-11-13T11:07:54.631Z,96448.00
2018-11-13T11:10:23.468Z,96441.94
2018-11-13T11:12:52.376Z,96439.06
2018-11-13T11:15:21.232Z,96428.47
2018-11-13T11:17:50.090Z,96434.08
2018-11-13T11:20:18.957Z,96423.60
2018-11-13T11:22:47.952Z,96423.89
2018-11-13T11:25:16.736Z,96408.95
2018-11-13T11:27:45.580Z,96414.28
2018-11-13T11:30:15.384Z,96406.67
2018-11-13T11:32:44.284Z,96402.17
2018-11-13T11:35:13.181Z,96408.17
2018-11-13T11:37:42.348Z,96399.12
2018-11-13T11:40:12.183Z,96399.35
2018-11-13T11:42:41.052Z,96393.23
2018-11-13T11:45:12.154Z,96395.52
2018-11-13T11:47:41.084Z,96388.57
2018-11-13T11:50:11.080Z,96389.77
2018-11-13T11:52:40.035Z,96381.59
2018-11-13T11:55:09.497Z,96378.05
2018-11-13T11:57:38.348Z,96372.33
2018-11-13T12:00:10.336Z,96376.17
2018-11-13T12:02:39.206Z,96370.70
2018-11-13T12:05:08.713Z,96367.31
2018-11-13T12:07:37.922Z,96363.19
2018-11-13T12:10:08.801Z,96364.06
2018-11-13T12:12:37.653Z,96360.43
2018-11-13T12:15:08.213Z,96364.41
2018-11-13T12:17:37.124Z,96357.39
2018-11-13T12:20:06.860Z,96362.82
2018-11-13T12:22:35.718Z,96356.01
2018-11-13T12:25:04.771Z,96354.84
2018-11-13T12:27:33.606Z,96352.08
2018-11-13T12:30:02.449Z,96352.97
2018-11-13T12:32:31.324Z,96355.42
2018-11-13T12:35:00.182Z,96356.36
2018-11-13T12:37:29.004Z,96352.36
2018-11-13T12:39:57.920Z,96347.53
2018-11-13T12:42:26.779Z,96349.03
2018-11-13T12:44:55.619Z,96346.16
2018-11-13T12:47:24.532Z,96345.45
2018-11-13T12:49:53.393Z,96354.14
2018-11-13T12:52:23.973Z,96346.88
2018-11-13T12:54:51.108Z,96343.66
2018-11-13T12:57:19.920Z,96347.78
2018-11-13T12:59:48.867Z,96345.09
2018-11-13T13:02:17.746Z,96345.16
2018-11-13T13:04:46.574Z,96346.80
2018-11-13T13:07:15.446Z,96342.60
2018-11-13T13:09:44.270Z,96330.24
2018-11-13T13:12:13.186Z,96330.56
2018-11-13T13:14:42.089Z,96336.48
2018-11-13T13:17:11.037Z,96335.24
2018-11-13T13:19:39.878Z,96335.33
2018-11-13T13:22:08.784Z,96339.45
2018-11-13T13:24:37.606Z,96337.19
2018-11-13T13:27:06.519Z,96335.73
2018-11-13T13:29:35.448Z,96334.69
2018-11-13T13:32:04.310Z,96334.91
2018-11-13T13:34:33.189Z,96329.66
2018-11-13T13:37:02.029Z,96323.11
2018-11-13T13:39:30.877Z,96328.05
2018-11-13T13:41:59.708Z,96327.19
2018-11-13T13:44:28.569Z,96324.77
2018-11-13T13:46:57.386Z,96331.96
2018-11-13T13:49:26.249Z,96331.47
2018-11-13T13:51:55.090Z,96326.91
2018-11-13T13:54:24.042Z,96328.84
2018-11-13T13:56:52.882Z,96324.91
2018-11-13T13:59:21.842Z,96325.67
2018-11-13T14:01:50.703Z,96320.49
2018-11-13T14:04:19.574Z,96318.39
2018-11-13T14:06:48.415Z,96321.50
2018-11-13T14:09:17.306Z,96309.56
2018-11-13T14:11:46.127Z,96313.94
2018-11-13T14:14:14.973Z,96311.85
2018-11-13T14:16:43.789Z,96311.92
2018-11-13T14:19:12.718Z,96305.24
2018-11-13T14:21:41.573Z,96303.96
2018-11-13T14:24:10.411Z,96307.29
2018-11-13T14:26:39.297Z,96303.44
2018-11-13T14:29:08.319Z,96300.33
2018-11-13T14:31:37.120Z,96299.44
2018-11-13T14:34:06.199Z,96297.02
2018-11-13T14:36:35.074Z,96294.80
2018-11-13T14:39:04.719Z,96297.70
2018-11-13T14:41:33.648Z,96302.80
2018-11-13T14:44:02.478Z,96295.72
2018-11-13T14:46:31.417Z,96297.21
2018-11-13T14:49:00.222Z,96298.73
2018-11-13T14:51:29.042Z,96300.39
2018-11-13T14:53:57.909Z,96299.78
2018-11-13T14:56:26.777Z,96300.11
2018-11-13T14:58:55.673Z,96296.17
2018-11-13T15:01:24.555Z,96301.20
2018-11-13T15:03:53.476Z,96305.30
2018-11-13T15:06:22.453Z,96296.53
2018-11-13T15:08:51.335Z,96303.70
2018-11-13T15:14:18.256Z,96303.78
2018-11-13T15:16:47.108Z,96303.11
2018-11-13T15:19:15.948Z,96303.53
2018-11-13T15:21:44.852Z,96294.36
2018-11-13T15:24:13.769Z,96299.11
2018-11-13T15:26:42.664Z,96307.77
2018-11-13T15:29:11.533Z,96305.14
2018-11-13T15:31:40.452Z,96309.24
2018-11-13T15:34:09.307Z,96314.26
2018-11-13T15:36:38.271Z,96315.08
2018-11-13T15:39:10.767Z,96316.06
2018-11-13T15:41:39.616Z,96314.75
2018-11-13T15:44:08.605Z,96312.54
2018-11-13T15:46:37.478Z,96313.92
2018-11-13T15:49:06.315Z,96318.61
2018-11-13T15:51:35.341Z,96318.61
2018-11-13T15:54:04.108Z,96327.11
2018-11-13T15:56:32.962Z,96321.52
2018-11-13T15:59:01.812Z,96330.41
2018-11-13T16:01:30.720Z,96327.11
2018-11-13T16:03:59.546Z,96325.12
2018-11-13T16:06:28.588Z,96326.55
2018-11-13T16:08:57.396Z,96332.16
2018-11-13T16:11:26.347Z,96335.23
2018-11-13T16:13:55.240Z,96337.52
2018-11-13T16:16:24.146Z,96338.70
2018-11-13T16:18:52.977Z,96335.23
2018-11-13T16:21:21.896Z,96338.15
2018-11-13T16:23:51.598Z,96340.91
2018-11-13T16:26:20.447Z,96337.87
2018-11-13T16:28:49.548Z,96338.84
2018-11-13T16:31:18.465Z,96347.19
2018-11-13T16:33:47.347Z,96343.92
2018-11-13T16:36:16.282Z,96346.48
2018-11-13T16:38:45.749Z,96340.74
2018-11-13T16:41:14.708Z,96342.45
2018-11-13T16:43:43.518Z,96344.25
2018-11-13T16:46:12.486Z,96349.97
2018-11-13T16:48:41.349Z,96345.77
2018-11-13T16:51:10.293Z,96348.20
2018-11-13T16:53:44.430Z,96348.06
2018-11-13T16:56:13.258Z,96353.05
2018-11-13T16:58:42.189Z,96352.91
2018-11-13T17:01:11.272Z,96350.03
2018-11-13T17:03:40.177Z,96350.91
2018-11-13T17:06:09.134Z,96353.67
2018-11-13T17:08:38.019Z,96354.10
2018-11-13T17:11:06.897Z,96361.25
2018-11-13T17:13:35.804Z,96367.59
2018-11-13T17:16:04.686Z,96362.61
2018-11-13T17:18:33.553Z,96366.68
2018-11-13T17:21:02.426Z,96365.63
2018-11-13T17:23:31.319Z,96364.08
2018-11-13T17:26:00.225Z,96359.05
2018-11-13T17:28:29.114Z,96361.38
2018-11-13T17:30:58.038Z,96359.98
2018-11-13T17:33:26.879Z,96354.16
2018-11-13T17:35:55.739Z,96355.42
2018-11-13T17:38:24.602Z,96352.80
2018-11-13T17:40:53.455Z,96354.88
2018-11-13T17:43:22.330Z,96356.14
2018-11-13T17:45:51.169Z,96360.41
2018-11-13T17:48:20.056Z,96358.76
2018-11-13T17:50:48.890Z,96366.98
2018-11-13T17:53:17.804Z,96362.38
2018-11-13T17:55:46.681Z,96361.45
2018-11-13T17:58:15.898Z,96356.70
2018-11-13T18:00:46.309Z,96363.84
2018-11-13T18:03:16.039Z,96366.69
2018-11-13T18:05:45.561Z,96368.19
2018-11-13T18:08:14.581Z,96365.70
2018-11-13T18:10:44.805Z,96367.59
2018-11-13T18:13:14.401Z,96365.16
2018-11-13T18:15:43.280Z,96369.39
2018-11-13T18:18:12.758Z,96365.27
2018-11-13T18:20:42.301Z,96366.39
2018-11-13T18:23:11.377Z,96355.83
2018-11-13T18:25:40.374Z,96359.81
2018-11-13T18:28:09.487Z,96355.68
2018-11-13T18:30:39.074Z,96353.62
2018-11-13T18:33:08.568Z,96354.83
2018-11-13T18:35:38.475Z,96354.02
2018-11-13T18:38:09.514Z,96357.94
2018-11-13T18:40:38.441Z,96348.59
2018-11-13T18:43:07.654Z,96358.42
2018-11-13T18:45:38.240Z,96355.84
2018-11-13T18:48:07.120Z,96357.59
2018-11-13T18:50:37.569Z,96359.52
2018-11-13T18:53:06.650Z,96369.47
2018-11-13T18:55:35.525Z,96367.85
2018-11-13T18:58:04.808Z,96363.94
2018-11-13T19:00:35.074Z,96364.14
2018-11-13T19:03:05.530Z,96364.40
2018-11-13T19:05:34.550Z,96367.56
2018-11-13T19:08:03.462Z,96367.47
2018-11-13T19:10:38.008Z,96365.33
2018-11-13T19:13:09.189Z,96369.12
2018-11-13T19:15:39.545Z,96366.72
2018-11-13T19:18:09.140Z,96371.36
2018-11-13T19:20:38.059Z,96364.10
2018-11-13T19:23:07.144Z,96369.70
2018-11-13T19:25:36.606Z,96376.73
2018-11-13T19:28:05.652Z,96376.52
2018-11-13T19:30:34.544Z,96370.38
2018-11-13T19:33:03.459Z,96367.66
2018-11-13T19:35:32.481Z,96373.05
2018-11-13T19:38:01.263Z,96366.68
2018-11-13T19:40:31.807Z,96358.99
2018-11-13T19:43:02.133Z,96353.30
2018-11-13T19:45:30.979Z,96358.05
2018-11-13T19:48:00.026Z,96356.28
2018-11-13T19:50:30.191Z,96353.92
2018-11-13T19:53:01.663Z,96351.06
2018-11-13T19:55:31.269Z,96353.23
2018-11-13T19:58:00.243Z,96361.75
2018-11-13T20:00:34.471Z,96360.31
2018-11-13T20:03:04.683Z,96363.52
2018-11-13T20:05:33.844Z,96367.77
2018-11-13T20:08:02.842Z,96367.74
2018-11-13T20:10:33.256Z,96369.70
2018-11-13T20:13:03.214Z,96365.66
2018-11-13T20:15:33.051Z,96371.78
2018-11-13T20:18:01.986Z,96369.52
2018-11-13T20:20:31.950Z,96366.54
2018-11-13T20:23:02.049Z,96362.86
2018-11-13T20:25:32.168Z,96360.46
2018-11-13T20:28:01.180Z,96354.28
2018-11-13T20:30:31.748Z,96352.44
2018-11-13T20:33:00.627Z,96348.39
2018-11-13T20:35:29.578Z,96341.42
2018-11-13T20:37:59.073Z,96339.65
2018-11-13T20:40:29.348Z,96341.42
2018-11-13T20:42:59.463Z,96333.23
2018-11-13T20:45:28.342Z,96340.56
2018-11-13T20:47:57.315Z,96335.30
2018-11-13T20:50:28.498Z,96339.59
2018-11-13T20:52:57.474Z,96339.97
2018-11-13T20:55:26.467Z,96344.02
2018-11-13T20:57:55.341Z,96345.23
2018-11-13T21:00:38.553Z,96350.88
2018-11-13T21:03:07.869Z,96359.72
2018-11-13T21:05:36.736Z,96370.46
2018-11-13T21:08:05.737Z,96366.91
2018-11-13T21:10:36.322Z,96367.36
2018-11-13T21:13:05.538Z,96365.44
2018-11-13T21:15:34.380Z,96366.70
2018-11-13T21:18:03.263Z,96361.94
2018-11-13T21:20:32.104Z,96353.62
2018-11-13T21:23:01.065Z,96355.95
2018-11-13T21:25:29.919Z,96359.35
2018-11-13T21:28:00.714Z,96354.19
2018-11-13T21:30:29.668Z,96353.42
2018-11-13T21:32:58.548Z,96345.06
2018-11-13T21:35:27.383Z,96342.43
2018-11-13T21:37:57.264Z,96347.58
2018-11-13T21:40:27.199Z,96347.81
2018-11-13T21:42:56.672Z,96343.88
2018-11-13T21:45:26.510Z,96348.02
2018-11-13T21:47:55.389Z,96342.55
2018-11-13T21:50:26.679Z,96344.44
2018-11-13T21:52:55.557Z,96349.05
2018-11-13T21:55:25.625Z,96350.95
2018-11-13T21:57:54.458Z,96349.49
2018-11-13T22:00:27.428Z,96348.16
2018-11-13T22:03:00.517Z,96341.15
2018-11-13T22:05:30.143Z,96335.23
2018-11-13T22:07:59.056Z,96335.52
2018-11-13T22:10:27.980Z,96322.25
2018-11-13T22:12:56.884Z,96320.75
2018-11-13T22:15:26.988Z,96319.66
2018-11-13T22:17:55.927Z,96315.72
2018-11-13T22:20:25.442Z,96296.69
2018-11-13T22:22:55.581Z,96301.53
2018-11-13T22:25:25.366Z,96298.90
2018-11-13T22:27:55.674Z,96294.77
2018-11-13T22:30:28.913Z,96301.50
2018-11-13T22:32:57.772Z,96309.60
2018-11-13T22:35:26.637Z,96320.39
2018-11-13T22:40:25.595Z,96303.44
2018-11-13T22:42:54.631Z,96302.29
2018-11-13T22:45:25.617Z,96297.11
2018-11-13T22:47:54.820Z,96301.84
2018-11-13T22:50:26.040Z,96302.78
2018-11-13T22:52:55.371Z,96292.35
2018-11-13T22:55:24.298Z,96291.64
2018-11-13T22:57:54.784Z,96285.06
2018-11-13T23:00:30.158Z,96286.80
2018-11-13T23:02:59.034Z,96286.45
2018-11-13T23:05:27.861Z,96290.81
2018-11-13T23:07:56.734Z,96288.95
2018-11-13T23:10:25.578Z,96286.05
2018-11-13T23:12:54.409Z,96291.09
2018-11-13T23:15:23.331Z,96291.47
2018-11-13T23:17:52.161Z,96295.05
2018-11-13T23:20:21.708Z,96296.83
2018-11-13T23:22:50.606Z,96290.64
2018-11-13T23:25:20.292Z,96284.47
2018-11-13T23:27:50.370Z,96287.22
2018-11-13T23:30:21.617Z,96286.77
2018-11-13T23:32:50.772Z,96284.08
2018-11-13T23:35:19.919Z,96285.85
2018-11-13T23:37:50.164Z,96287.50
2018-11-13T23:40:20.299Z,96285.61
2018-11-13T23:42:49.554Z,96283.96
2018-11-13T23:45:19.351Z,96282.07
2018-11-13T23:47:48.694Z,96278.91
2018-11-13T23:50:17.627Z,96279.83
2018-11-13T23:52:47.378Z,96281.13
2018-11-13T23:55:16.611Z,96275.06
2018-11-13T23:57:45.990Z,96272.03
